Awans, Belgium
Current Conditions -  °F | °C
As of 8:20 AM on Saturday 25 Oct 2014 (Local Time) from EBLG Reporting Station
Haze Haze  
Wind Chill: 52°   Ceiling: 300
Heat Index: 52°   Visibility: 2.8mi
Dew Point: 50°   Wind: 7mph
Humidity: 94%   Direction: 200°SSW
Pressure: 30.06"   Gusts: NA
Location:  50.67°N, 5.46°E
Report Text: EBLG 250620Z 20006KT 4600 BR FEW002 BKN003 11/10 Q1018 TEMPO 2500 BR BKN003
Loading
Personal Weather Stations






























Interactive Weather Map
Tropical Storm Tracking
New forecast layout! Learn more

10-Day Weather Forecast

Advertisements
Track Severe Weather on mobile